createdAt,value
2023-05-19T00:10:21.748Z,8.80
2023-05-19T00:25:23.425Z,8.64
2023-05-19T00:40:25.065Z,8.47
2023-05-19T00:55:27.618Z,8.38
2023-05-19T01:10:29.661Z,8.40
2023-05-19T01:25:31.765Z,8.26
2023-05-19T01:40:33.692Z,8.15
2023-05-19T01:55:35.512Z,7.96
2023-05-19T02:10:37.242Z,7.79
2023-05-19T02:25:38.898Z,7.72
2023-05-19T02:40:40.943Z,7.60
2023-05-19T02:55:42.625Z,7.47
2023-05-19T03:10:44.366Z,7.40
2023-05-19T03:25:46.075Z,7.26
2023-05-19T03:40:47.777Z,7.27
2023-05-19T03:55:49.869Z,7.28
2023-05-19T04:10:51.634Z,7.37
2023-05-19T04:25:54.480Z,7.53
2023-05-19T04:40:56.594Z,7.77
2023-05-19T04:55:59.327Z,8.36
2023-05-19T05:11:01.063Z,9.27
2023-05-19T05:26:02.813Z,10.49
2023-05-19T05:41:04.895Z,11.79
2023-05-19T05:56:09.490Z,12.57
2023-05-19T06:11:19.807Z,13.85
2023-05-19T06:26:23.121Z,12.68
2023-05-19T06:41:25.046Z,11.01
2023-05-19T06:56:27.434Z,10.95
2023-05-19T07:11:29.240Z,11.87
2023-05-19T07:26:33.717Z,11.49
2023-05-19T07:41:36.455Z,11.83
2023-05-19T07:56:38.248Z,12.13
2023-05-19T08:11:39.912Z,11.94
2023-05-19T08:26:41.836Z,11.82
2023-05-19T08:41:43.556Z,11.65
2023-05-19T08:56:45.789Z,12.13
2023-05-19T09:11:47.491Z,12.44
2023-05-19T09:26:49.111Z,12.23
2023-05-19T09:41:50.939Z,12.93
2023-05-19T09:56:53.359Z,12.42
2023-05-19T10:11:55.017Z,12.76
2023-05-19T10:26:56.771Z,12.69
2023-05-19T10:41:58.417Z,12.78
2023-05-19T10:57:00.065Z,13.03
2023-05-19T11:12:03.412Z,13.27
2023-05-19T11:27:05.058Z,13.00
2023-05-19T11:42:06.728Z,13.22
2023-05-19T11:57:08.382Z,13.10
2023-05-19T12:12:10.030Z,13.30
2023-05-19T12:27:14.896Z,13.07
2023-05-19T12:42:16.567Z,13.40
2023-05-19T12:57:18.182Z,13.44
2023-05-19T13:12:20.814Z,13.02
2023-05-19T13:27:24.942Z,13.81
2023-05-19T13:42:27.003Z,13.48
2023-05-19T13:57:28.662Z,13.12
2023-05-19T14:12:43.169Z,13.50
2023-05-19T14:27:49.119Z,14.10
2023-05-19T14:42:50.762Z,14.40
2023-05-19T14:57:52.417Z,14.70
2023-05-19T15:12:54.187Z,14.67
2023-05-19T15:27:55.833Z,15.21
2023-05-19T15:42:57.603Z,15.22
2023-05-19T15:57:59.280Z,14.73
2023-05-19T16:13:03.703Z,14.99
2023-05-19T16:28:05.590Z,14.95
2023-05-19T16:43:07.291Z,15.03
2023-05-19T16:58:10.795Z,14.89
2023-05-19T17:13:12.709Z,15.18
2023-05-19T17:28:14.484Z,15.37
2023-05-19T17:43:16.192Z,15.36
2023-05-19T17:58:17.870Z,15.10
2023-05-19T18:13:19.535Z,14.23
2023-05-19T18:28:21.505Z,13.70
2023-05-19T18:43:23.184Z,13.40
2023-05-19T18:58:24.868Z,13.02
2023-05-19T19:13:26.537Z,12.82
2023-05-19T19:28:28.294Z,12.76
2023-05-19T19:43:30.361Z,12.66
2023-05-19T19:58:32.057Z,12.43
2023-05-19T20:13:33.772Z,12.54
2023-05-19T20:28:36.056Z,12.55
2023-05-19T20:43:37.699Z,12.53
2023-05-19T20:58:39.343Z,12.36
2023-05-19T21:13:41.098Z,12.29
2023-05-19T21:28:42.920Z,12.29
2023-05-19T21:43:45.312Z,12.05
2023-05-19T21:58:47.010Z,11.90
2023-05-19T22:13:48.698Z,11.77
2023-05-19T22:28:50.638Z,11.38
2023-05-19T22:43:52.489Z,11.17
2023-05-19T22:58:54.132Z,11.08
2023-05-19T23:13:55.792Z,11.06
2023-05-19T23:28:57.585Z,11.03
2023-05-19T23:43:59.290Z,11.12
2023-05-19T23:59:01.018Z,11.02
